Time;durP1;ratioP1;P1;durP2;ratioP2;P2;SDS_P1;SDS_P2;PMS_P1;PMS_P2;Temp;Humidity;BMP_temperature;BMP_pressure;BME280_temperature;BME280_humidity;BME280_pressure;Samples;Min_cycle;Max_cycle;Signal;HPM_P1;HPM_P2
2023/03/01 00:01:48;;;;;;;226.18;102.15;;;3.50;99.90;;;;;;5018721;28;20092;-76
2023/03/01 00:04:16;;;;;;;105.53;60.58;;;3.50;1.00;;;;;;5036557;28;20026;-76
2023/03/01 00:06:45;;;;;;;86.88;56.30;;;3.40;1.00;;;;;;5031063;28;20033;-76
2023/03/01 00:09:13;;;;;;;94.03;60.33;;;3.40;99.90;;;;;;5022396;28;20429;-76
2023/03/01 00:11:42;;;;;;;92.82;57.65;;;3.40;1.00;;;;;;5011409;28;20054;-76
2023/03/01 00:14:10;;;;;;;173.10;85.65;;;3.30;1.00;;;;;;4994664;28;20058;-74
2023/03/01 00:16:40;;;;;;;174.05;84.82;;;3.30;99.90;;;;;;5012386;28;20046;-77
2023/03/01 00:19:09;;;;;;;83.72;51.67;;;3.40;1.00;;;;;;5011656;28;20529;-76
2023/03/01 00:21:36;;;;;;;76.05;48.67;;;3.40;1.00;;;;;;5011599;28;20588;-76
2023/03/01 00:24:04;;;;;;;74.75;47.05;;;3.40;99.90;;;;;;5016804;28;20046;-75
2023/03/01 00:26:32;;;;;;;74.90;46.17;;;3.50;1.00;;;;;;5016083;28;20060;-75
2023/03/01 00:29:02;;;;;;;71.63;43.58;;;3.50;1.00;;;;;;5011236;28;20588;-76
2023/03/01 00:31:31;;;;;;;63.63;41.72;;;3.40;99.90;;;;;;5011565;28;20054;-76
2023/03/01 00:34:01;;;;;;;70.20;42.63;;;3.40;99.90;;;;;;5010705;28;20092;-77
2023/03/01 00:36:31;;;;;;;88.57;54.55;;;3.40;1.00;;;;;;5011674;28;20048;-77
2023/03/01 00:38:59;;;;;;;89.10;53.88;;;3.40;99.90;;;;;;5010176;28;20046;-77
2023/03/01 00:41:27;;;;;;;90.43;53.85;;;3.50;1.00;;;;;;5011115;28;20145;-80
2023/03/01 00:43:55;;;;;;;80.03;47.63;;;3.40;99.90;;;;;;5010292;28;20056;-77
2023/03/01 00:46:26;;;;;;;131.57;76.80;;;3.40;1.00;;;;;;5010029;28;20052;-74
2023/03/01 00:48:54;;;;;;;105.15;57.97;;;3.50;44.00;;;;;;5008779;28;20047;-77
2023/03/01 00:51:24;;;;;;;111.70;58.10;;;3.40;99.90;;;;;;5010359;28;20600;-76
2023/03/01 00:53:53;;;;;;;102.72;55.97;;;3.40;99.90;;;;;;5026196;28;20054;-75
2023/03/01 00:56:20;;;;;;;96.30;52.15;;;3.30;1.00;;;;;;5010268;28;20482;-77
2023/03/01 00:58:48;;;;;;;103.10;56.20;;;3.40;1.00;;;;;;5009956;28;20100;-78
2023/03/01 01:01:18;;;;;;;96.13;54.80;;;3.30;1.00;;;;;;5009983;28;20147;-74
2023/03/01 01:03:50;;;;;;;90.88;51.92;;;3.30;1.00;;;;;;5010005;28;20461;-77
2023/03/01 01:06:19;;;;;;;88.00;51.70;;;3.30;1.00;;;;;;5011053;28;20107;-74
2023/03/01 01:08:48;;;;;;;86.00;48.45;;;3.30;1.00;;;;;;5009945;28;20120;-73
2023/03/01 01:11:16;;;;;;;84.63;47.45;;;3.30;1.00;;;;;;5010255;28;20073;-76
2023/03/01 01:13:45;;;;;;;83.57;45.17;;;3.30;1.00;;;;;;5010508;28;20045;-74
2023/03/01 01:16:14;;;;;;;85.93;47.50;;;3.30;1.00;;;;;;5011259;28;20137;-75
2023/03/01 01:18:41;;;;;;;78.57;45.30;;;3.40;1.00;;;;;;5025087;28;20045;-75
2023/03/01 01:21:13;;;;;;;79.90;44.50;;;3.30;1.00;;;;;;5009636;28;20061;-76
2023/03/01 01:23:41;;;;;;;76.57;43.85;;;3.30;1.00;;;;;;5010341;28;20050;-75
2023/03/01 01:26:11;;;;;;;77.07;42.67;;;3.40;1.00;;;;;;5010084;28;20042;-77
2023/03/01 01:28:39;;;;;;;77.25;41.85;;;3.30;1.00;;;;;;5011441;28;20114;-76
2023/03/01 01:31:06;;;;;;;76.50;42.20;;;3.30;99.90;;;;;;5027131;28;20046;-76
2023/03/01 01:33:35;;;;;;;67.80;38.65;;;3.20;99.90;;;;;;5019349;28;20050;-77
2023/03/01 01:36:02;;;;;;;72.63;39.42;;;3.20;1.00;;;;;;5011804;28;20115;-76
2023/03/01 01:38:31;;;;;;;64.78;40.58;;;3.10;99.90;;;;;;5009916;28;20057;-80
2023/03/01 01:40:59;;;;;;;63.97;36.90;;;3.10;1.00;;;;;;5009714;28;20128;-75
2023/03/01 01:43:29;;;;;;;57.63;34.13;;;3.20;1.00;;;;;;5009230;28;20042;-78
2023/03/01 01:45:58;;;;;;;54.40;32.92;;;3.20;98.60;;;;;;5008390;28;20038;-76
2023/03/01 01:48:40;;;;;;;53.78;31.98;;;3.30;99.90;;;;;;5024727;28;20049;-75
2023/03/01 01:51:13;;;;;;;54.40;31.00;;;3.40;99.90;;;;;;5011613;28;20088;-77
2023/03/01 01:53:46;;;;;;;59.80;33.72;;;3.30;27.30;;;;;;5009788;28;20042;-75
2023/03/01 01:56:22;;;;;;;51.65;31.02;;;3.20;1.00;;;;;;5009616;28;20042;-76
2023/03/01 01:58:51;;;;;;;53.00;32.45;;;3.20;1.00;;;;;;5010242;28;20070;-73
2023/03/01 02:01:21;;;;;;;60.45;37.53;;;3.30;1.00;;;;;;5010030;28;20046;-75
2023/03/01 02:03:53;;;;;;;63.65;38.83;;;3.30;1.00;;;;;;5010492;28;20054;-79
2023/03/01 02:06:32;;;;;;;67.30;40.28;;;3.40;99.90;;;;;;5013707;28;20046;-79
2023/03/01 02:09:06;;;;;;;68.55;40.20;;;3.40;1.00;;;;;;5020608;28;20064;-74
2023/03/01 02:11:38;;;;;;;66.88;41.67;;;3.50;1.00;;;;;;5009813;28;20499;-74
2023/03/01 02:14:16;;;;;;;63.40;38.55;;;3.50;1.00;;;;;;5008575;28;20190;-79
2023/03/01 02:16:46;;;;;;;67.63;40.28;;;3.50;1.00;;;;;;5017774;28;20054;-75
2023/03/01 02:19:24;;;;;;;64.60;38.83;;;3.50;1.00;;;;;;5011402;28;20053;-79
2023/03/01 02:22:03;;;;;;;54.90;35.80;;;3.60;7.70;;;;;;5004853;28;20050;-75
2023/03/01 02:24:38;;;;;;;59.20;34.90;;;3.60;1.00;;;;;;5015691;28;20092;-77
2023/03/01 02:27:12;;;;;;;58.28;36.67;;;3.60;99.90;;;;;;5012835;28;20041;-76
2023/03/01 02:29:43;;;;;;;45.97;27.40;;;3.70;99.90;;;;;;5000369;28;20609;-78
2023/03/01 02:32:15;;;;;;;45.17;27.23;;;3.70;99.90;;;;;;5012207;28;20065;-75
2023/03/01 02:34:43;;;;;;;42.95;27.00;;;3.60;1.00;;;;;;5004140;28;20145;-76
2023/03/01 02:37:14;;;;;;;46.78;29.45;;;3.60;1.00;;;;;;5013413;28;20057;-76
2023/03/01 02:39:45;;;;;;;45.95;28.60;;;3.60;1.00;;;;;;5014459;28;20046;-75
2023/03/01 02:42:18;;;;;;;57.45;33.80;;;3.60;99.90;;;;;;5011549;28;20049;-76
2023/03/01 02:44:47;;;;;;;56.53;34.30;;;3.60;1.00;;;;;;5010967;28;20440;-74
2023/03/01 02:47:15;;;;;;;48.00;29.25;;;3.60;99.90;;;;;;5009114;28;20050;-73
2023/03/01 02:49:42;;;;;;;42.78;26.63;;;3.60;99.90;;;;;;5008938;28;20064;-78
2023/03/01 02:52:38;;;;;;;48.25;29.40;;;3.50;1.00;;;;;;5018344;28;20046;-75
2023/03/01 02:55:09;;;;;;;47.55;28.10;;;3.50;99.90;;;;;;5028080;28;20077;-74
2023/03/01 02:57:39;;;;;;;33.80;23.42;;;3.50;1.00;;;;;;5012819;28;20046;-75
2023/03/01 03:00:18;;;;;;;30.27;21.83;;;3.50;99.90;;;;;;5013107;28;20105;-76
2023/03/01 03:02:47;;;;;;;30.60;22.50;;;3.50;1.00;;;;;;5012836;28;20502;-75
2023/03/01 03:05:25;;;;;;;33.28;23.55;;;3.50;1.00;;;;;;5014112;28;20046;-74
2023/03/01 03:07:56;;;;;;;33.78;22.70;;;3.50;1.00;;;;;;5030316;23;20085;-76
2023/03/01 03:10:27;;;;;;;39.05;24.73;;;3.50;1.00;;;;;;5030835;28;20140;-79
2023/03/01 03:12:56;;;;;;;36.30;24.65;;;3.50;1.00;;;;;;5031639;28;20067;-79
2023/03/01 03:15:25;;;;;;;31.75;20.88;;;3.50;1.00;;;;;;5030240;28;20080;-78
2023/03/01 03:17:54;;;;;;;33.42;22.38;;;3.50;99.90;;;;;;5030431;28;20136;-78
2023/03/01 03:20:24;;;;;;;32.25;23.35;;;3.40;99.90;;;;;;5029689;28;20077;-77
2023/03/01 03:22:54;;;;;;;29.38;19.55;;;3.50;99.90;;;;;;5030338;28;20507;-76
2023/03/01 03:25:23;;;;;;;27.10;18.45;;;3.40;99.90;;;;;;5029608;28;20394;-78
2023/03/01 03:27:56;;;;;;;21.75;15.48;;;3.20;99.90;;;;;;5030675;28;20132;-78
2023/03/01 03:30:27;;;;;;;22.90;16.17;;;3.20;1.00;;;;;;5045538;28;20049;-77
2023/03/01 03:32:55;;;;;;;22.25;15.73;;;3.20;91.70;;;;;;5030195;28;20060;-76
2023/03/01 03:35:24;;;;;;;25.08;16.27;;;3.20;1.00;;;;;;5030508;28;20096;-78
2023/03/01 03:38:05;;;;;;;27.67;18.45;;;3.20;1.00;;;;;;5028740;28;20133;-79
2023/03/01 03:40:35;;;;;;;26.08;16.98;;;3.30;1.00;;;;;;5030787;28;20107;-77
2023/03/01 03:43:03;;;;;;;25.38;17.73;;;3.30;99.90;;;;;;5028891;28;20132;-78
2023/03/01 03:45:33;;;;;;;24.65;16.38;;;3.40;99.90;;;;;;5031616;28;20137;-78
2023/03/01 03:48:01;;;;;;;27.45;17.38;;;3.40;99.90;;;;;;5029804;28;20056;-77
2023/03/01 03:50:28;;;;;;;27.90;17.95;;;3.50;52.60;;;;;;5031481;28;20490;-78
2023/03/01 03:52:56;;;;;;;23.98;15.98;;;3.50;1.00;;;;;;5031376;28;20068;-78
2023/03/01 03:55:27;;;;;;;25.77;16.92;;;3.60;1.00;;;;;;5030817;28;20041;-78
2023/03/01 03:57:55;;;;;;;25.77;16.38;;;3.60;1.00;;;;;;5029980;28;20045;-78
2023/03/01 04:00:23;;;;;;;27.45;17.90;;;3.60;1.00;;;;;;5030297;28;20041;-78
2023/03/01 04:02:56;;;;;;;30.58;19.20;;;3.70;1.00;;;;;;5029618;28;20132;-79
2023/03/01 04:05:24;;;;;;;26.65;17.30;;;3.70;99.90;;;;;;5046279;28;20099;-76
2023/03/01 04:08:00;;;;;;;27.98;17.70;;;3.60;1.00;;;;;;5030187;28;20056;-78
2023/03/01 04:10:29;;;;;;;26.70;17.38;;;3.60;1.00;;;;;;5030778;28;20045;-78
2023/03/01 04:12:57;;;;;;;29.92;16.92;;;3.60;1.00;;;;;;5029125;28;20133;-77
2023/03/01 04:15:25;;;;;;;24.70;16.55;;;3.60;1.00;;;;;;5029966;28;20052;-79
2023/03/01 04:17:55;;;;;;;24.75;16.92;;;3.60;1.00;;;;;;5028960;28;20045;-79
2023/03/01 04:20:25;;;;;;;25.27;15.45;;;3.60;1.00;;;;;;5029232;28;20053;-76
2023/03/01 04:22:58;;;;;;;25.55;16.15;;;3.60;1.00;;;;;;5029354;28;20048;-77
2023/03/01 04:25:26;;;;;;;24.27;15.80;;;3.60;1.00;;;;;;5030594;28;20040;-78
2023/03/01 04:27:54;;;;;;;23.83;15.35;;;3.60;1.00;;;;;;5028443;28;20045;-78
2023/03/01 04:30:25;;;;;;;23.60;15.35;;;3.70;16.80;;;;;;5029130;28;20049;-79
2023/03/01 04:32:54;;;;;;;24.63;15.48;;;3.70;1.00;;;;;;5029278;28;20042;-77
2023/03/01 04:35:21;;;;;;;22.77;14.52;;;3.70;1.00;;;;;;5030786;28;20041;-78
2023/03/01 04:37:50;;;;;;;26.00;14.75;;;3.60;1.00;;;;;;5028156;28;20060;-77
2023/03/01 04:40:18;;;;;;;26.70;15.20;;;3.60;1.00;;;;;;5029672;28;20129;-77
2023/03/01 04:42:45;;;;;;;24.48;14.98;;;3.60;46.60;;;;;;5045358;28;20056;-77
2023/03/01 04:45:14;;;;;;;24.88;16.23;;;3.60;1.00;;;;;;5030602;28;20084;-77
2023/03/01 04:47:44;;;;;;;26.98;15.25;;;3.50;1.00;;;;;;5029674;28;20041;-78
2023/03/01 04:50:15;;;;;;;22.75;14.82;;;3.40;1.00;;;;;;5030374;28;20045;-78
2023/03/01 04:52:43;;;;;;;23.40;15.25;;;3.40;99.90;;;;;;5029510;28;20049;-80
2023/03/01 04:55:11;;;;;;;26.90;16.23;;;3.50;1.00;;;;;;5030184;28;20038;-77
2023/03/01 04:57:39;;;;;;;24.73;16.33;;;3.50;1.00;;;;;;5028957;28;20061;-78
2023/03/01 05:00:19;;;;;;;25.50;16.13;;;3.50;1.00;;;;;;5030395;28;20045;-79
2023/03/01 05:02:52;;;;;;;24.52;16.13;;;3.50;1.00;;;;;;5028268;28;20045;-79
2023/03/01 05:05:25;;;;;;;22.88;15.77;;;3.50;1.00;;;;;;5028111;28;20077;-78
2023/03/01 05:07:54;;;;;;;22.08;15.30;;;3.50;1.00;;;;;;5029164;28;20046;-77
2023/03/01 05:10:22;;;;;;;18.30;13.60;;;3.60;99.90;;;;;;5029040;28;20037;-78
2023/03/01 05:12:49;;;;;;;21.77;14.18;;;3.60;99.90;;;;;;5028474;28;20037;-78
2023/03/01 05:15:17;;;;;;;22.33;13.25;;;3.60;1.00;;;;;;5027804;28;20053;-77
2023/03/01 05:17:46;;;;;;;20.23;13.60;;;3.50;1.00;;;;;;5027814;28;20085;-80
2023/03/01 05:20:13;;;;;;;19.52;12.55;;;3.40;25.90;;;;;;5027971;28;20103;-78
2023/03/01 05:22:42;;;;;;;25.17;16.15;;;3.30;1.00;;;;;;5028008;28;20045;-76
2023/03/01 05:25:10;;;;;;;32.78;20.17;;;3.30;99.90;;;;;;5028197;28;20107;-78
2023/03/01 05:27:38;;;;;;;31.13;19.88;;;3.40;23.20;;;;;;5029173;28;20065;-77
2023/03/01 05:30:13;;;;;;;29.55;19.20;;;3.50;99.90;;;;;;5028241;28;20387;-77
2023/03/01 05:32:44;;;;;;;30.95;20.67;;;3.50;71.60;;;;;;5028327;28;20519;-77
2023/03/01 05:35:14;;;;;;;23.52;17.23;;;3.40;99.90;;;;;;5027117;28;20504;-76
2023/03/01 05:37:47;;;;;;;34.22;19.80;;;3.40;1.00;;;;;;5028309;28;20049;-78
2023/03/01 05:40:16;;;;;;;21.50;15.55;;;3.40;1.00;;;;;;5028394;28;20132;-79
2023/03/01 05:42:45;;;;;;;20.35;15.57;;;3.30;1.00;;;;;;5029124;28;20140;-78
2023/03/01 05:45:14;;;;;;;20.35;15.32;;;3.30;78.90;;;;;;5028312;28;20076;-77
2023/03/01 05:47:43;;;;;;;20.75;16.30;;;3.30;1.00;;;;;;5027804;28;20041;-78
2023/03/01 05:50:14;;;;;;;28.20;20.52;;;3.30;78.90;;;;;;5029425;28;20037;-78
2023/03/01 05:52:41;;;;;;;44.15;28.17;;;3.40;1.00;;;;;;5028967;28;20095;-78
2023/03/01 05:55:11;;;;;;;88.32;52.08;;;3.40;1.00;;;;;;5028836;28;20555;-78
2023/03/01 05:57:38;;;;;;;93.47;55.30;;;3.50;1.00;;;;;;5028330;28;20360;-77
2023/03/01 06:00:07;;;;;;;98.80;57.58;;;3.60;1.00;;;;;;5028104;28;20136;-78
2023/03/01 06:02:40;;;;;;;81.22;46.08;;;3.70;99.90;;;;;;5029367;28;20037;-77
2023/03/01 06:05:09;;;;;;;39.60;23.80;;;3.70;99.90;;;;;;5039777;28;20445;-79
2023/03/01 06:07:37;;;;;;;28.88;19.90;;;3.70;99.90;;;;;;5035654;28;20065;-78
2023/03/01 06:10:06;;;;;;;51.30;30.95;;;3.70;1.00;;;;;;5028895;28;20046;-75
2023/03/01 06:12:36;;;;;;;53.13;31.08;;;3.70;1.00;;;;;;5029249;28;20037;-78
2023/03/01 06:15:05;;;;;;;74.18;40.97;;;3.70;1.00;;;;;;5030570;28;20038;-77
2023/03/01 06:17:37;;;;;;;45.83;28.02;;;3.70;1.00;;;;;;5028893;28;20056;-76
2023/03/01 06:20:05;;;;;;;70.53;41.67;;;3.70;1.00;;;;;;5028578;28;20045;-78
2023/03/01 06:22:34;;;;;;;94.60;50.20;;;3.80;1.00;;;;;;5027928;28;20497;-77
2023/03/01 06:25:01;;;;;;;100.82;52.30;;;3.80;1.00;;;;;;5029032;28;20440;-77
2023/03/01 06:27:29;;;;;;;96.03;51.42;;;3.90;1.00;;;;;;5031301;28;20056;-76
2023/03/01 06:29:57;;;;;;;111.55;53.00;;;3.80;1.00;;;;;;5031010;28;20513;-77
2023/03/01 06:32:25;;;;;;;106.25;54.05;;;3.80;1.00;;;;;;5030800;28;20475;-78
2023/03/01 06:34:53;;;;;;;98.93;51.80;;;3.80;1.00;;;;;;5030642;28;20045;-78
2023/03/01 06:37:20;;;;;;;98.90;52.47;;;3.90;99.90;;;;;;5031904;28;20049;-77
2023/03/01 06:39:49;;;;;;;96.88;51.28;;;4.00;99.90;;;;;;5031459;28;20065;-76
2023/03/01 06:42:16;;;;;;;74.75;42.83;;;4.00;1.00;;;;;;5029995;28;20048;-76
2023/03/01 06:44:45;;;;;;;77.63;44.97;;;4.00;1.00;;;;;;5032526;28;20464;-77
2023/03/01 06:47:14;;;;;;;81.60;47.03;;;4.00;2.10;;;;;;5031132;28;20037;-78
2023/03/01 06:49:42;;;;;;;53.80;35.10;;;4.00;99.90;;;;;;5032224;28;20041;-77
2023/03/01 06:52:10;;;;;;;56.00;34.50;;;3.90;99.90;;;;;;5031546;28;20572;-76
2023/03/01 06:54:37;;;;;;;85.55;48.08;;;3.80;97.90;;;;;;5031302;28;20371;-75
2023/03/01 06:57:05;;;;;;;82.50;49.83;;;3.80;99.90;;;;;;5030917;28;20120;-77
2023/03/01 06:59:32;;;;;;;71.00;44.60;;;3.80;99.90;;;;;;5032786;28;20048;-79
2023/03/01 07:01:59;;;;;;;73.13;44.17;;;3.80;99.90;;;;;;5030735;28;20523;-78
2023/03/01 07:04:30;;;;;;;66.47;41.80;;;3.70;1.00;;;;;;5030432;28;20095;-79
2023/03/01 07:06:57;;;;;;;68.97;39.80;;;3.70;1.00;;;;;;5030136;28;20104;-76
2023/03/01 07:09:25;;;;;;;60.78;37.33;;;3.90;1.00;;;;;;5031071;28;20159;-78
2023/03/01 07:11:53;;;;;;;65.60;41.30;;;4.00;1.00;;;;;;5030384;28;20041;-78
2023/03/01 07:14:20;;;;;;;53.78;34.38;;;4.10;1.00;;;;;;5031743;28;20041;-77
2023/03/01 07:16:48;;;;;;;54.72;31.23;;;4.20;1.00;;;;;;5032639;28;20041;-78
2023/03/01 07:19:15;;;;;;;82.50;54.63;;;4.20;1.00;;;;;;5031718;28;20452;-78
2023/03/01 07:21:44;;;;;;;160.52;89.55;;;4.20;1.00;;;;;;5032988;28;20034;-77
2023/03/01 07:24:12;;;;;;;144.43;81.82;;;4.10;1.00;;;;;;5031930;28;20041;-79
2023/03/01 07:26:40;;;;;;;116.28;74.32;;;4.10;1.00;;;;;;5031951;28;20070;-77
2023/03/01 07:29:08;;;;;;;111.22;67.57;;;4.10;1.00;;;;;;5032116;28;20033;-78
2023/03/01 07:31:36;;;;;;;98.20;61.15;;;4.20;99.90;;;;;;5033067;28;20068;-76
2023/03/01 07:34:04;;;;;;;99.80;62.95;;;4.30;99.90;;;;;;5030502;28;20060;-78
2023/03/01 07:36:31;;;;;;;97.97;59.35;;;4.40;1.00;;;;;;5028345;28;20155;-76
2023/03/01 07:39:10;;;;;;;107.20;65.70;;;4.40;1.00;;;;;;5030581;28;20057;-77
2023/03/01 07:41:38;;;;;;;44.92;29.48;;;4.40;99.90;;;;;;5030968;28;20067;-76
2023/03/01 07:44:05;;;;;;;44.17;30.25;;;4.40;99.90;;;;;;5031335;28;20124;-76
2023/03/01 07:46:33;;;;;;;46.10;30.27;;;4.50;1.00;;;;;;5030382;28;20055;-76
2023/03/01 07:49:00;;;;;;;62.97;41.30;;;4.50;99.90;;;;;;5031626;28;20041;-77
2023/03/01 07:51:28;;;;;;;67.07;43.63;;;4.60;1.00;;;;;;5031956;28;20048;-77
2023/03/01 07:53:55;;;;;;;64.97;41.88;;;4.60;1.00;;;;;;5029857;28;20136;-77
2023/03/01 07:56:24;;;;;;;56.75;37.25;;;4.70;1.00;;;;;;5030884;28;20047;-76
2023/03/01 07:58:52;;;;;;;63.13;39.88;;;4.80;1.00;;;;;;5029323;28;20490;-78
2023/03/01 08:01:21;;;;;;;90.32;53.65;;;5.00;1.00;;;;;;5030425;28;20128;-77
2023/03/01 08:03:49;;;;;;;74.68;46.85;;;4.90;9.90;;;;;;5030675;28;20049;-78
2023/03/01 08:06:18;;;;;;;71.32;44.60;;;5.00;22.10;;;;;;5030581;28;20135;-76
2023/03/01 08:08:46;;;;;;;70.13;43.78;;;4.90;11.40;;;;;;5029381;28;20100;-77
2023/03/01 08:11:15;;;;;;;64.55;40.33;;;4.80;99.90;;;;;;5028287;28;20117;-76
2023/03/01 08:13:45;;;;;;;50.85;31.88;;;4.70;99.90;;;;;;5029978;28;20046;-79
2023/03/01 08:16:14;;;;;;;53.67;34.00;;;4.70;99.90;;;;;;5030712;28;20132;-79
2023/03/01 08:18:42;;;;;;;43.55;29.13;;;4.60;99.90;;;;;;5031431;28;20052;-77
2023/03/01 08:21:12;;;;;;;53.47;34.40;;;4.60;99.90;;;;;;5030268;28;20051;-77
2023/03/01 08:23:40;;;;;;;56.55;36.13;;;4.60;99.90;;;;;;5029867;28;20481;-78
2023/03/01 08:26:12;;;;;;;59.95;37.55;;;4.50;99.90;;;;;;5030203;28;20044;-78
2023/03/01 08:28:41;;;;;;;93.15;55.50;;;4.50;1.00;;;;;;5028980;28;20045;-78
2023/03/01 08:31:18;;;;;;;104.85;56.03;;;4.60;99.90;;;;;;5029139;28;20367;-77
2023/03/01 08:33:50;;;;;;;88.18;50.97;;;4.70;67.70;;;;;;5028555;28;20646;-79
2023/03/01 08:36:19;;;;;;;83.93;54.72;;;4.80;1.00;;;;;;5044547;28;20053;-77
2023/03/01 08:38:59;;;;;;;103.78;64.00;;;4.80;1.00;;;;;;5030997;28;20045;-87
2023/03/01 08:41:27;;;;;;;140.10;76.80;;;4.80;1.00;;;;;;5029962;28;20045;-77
2023/03/01 08:43:58;;;;;;;141.15;77.45;;;5.00;1.00;;;;;;5027681;28;20038;-78
2023/03/01 08:46:28;;;;;;;140.50;76.05;;;5.10;1.00;;;;;;5029266;28;20041;-77
2023/03/01 08:48:55;;;;;;;144.73;78.25;;;5.30;1.00;;;;;;5028818;28;20075;-79
2023/03/01 08:51:24;;;;;;;136.90;75.57;;;5.40;1.00;;;;;;5027618;28;20045;-80
2023/03/01 08:53:52;;;;;;;150.95;79.80;;;5.50;99.90;;;;;;5029164;28;20053;-79
2023/03/01 08:56:22;;;;;;;131.77;69.93;;;5.60;1.00;;;;;;5030365;28;20037;-79
2023/03/01 08:58:50;;;;;;;130.43;72.22;;;5.60;1.00;;;;;;5028926;28;20140;-77
2023/03/01 09:01:20;;;;;;;134.25;72.95;;;5.60;1.00;;;;;;5028565;28;20076;-81
2023/03/01 09:03:49;;;;;;;159.95;85.72;;;5.50;1.00;;;;;;5028360;28;20049;-77
2023/03/01 09:06:17;;;;;;;142.20;76.93;;;5.50;1.00;;;;;;5028908;28;20315;-78
2023/03/01 09:08:48;;;;;;;128.65;72.28;;;5.50;1.00;;;;;;5028907;28;20045;-77
2023/03/01 09:11:20;;;;;;;124.82;71.03;;;5.50;1.00;;;;;;5030517;28;20422;-85
2023/03/01 09:13:49;;;;;;;139.90;75.13;;;5.60;1.00;;;;;;5028893;28;20413;-77
2023/03/01 09:16:18;;;;;;;125.53;72.10;;;5.80;1.00;;;;;;5029776;28;20045;-76
2023/03/01 09:18:49;;;;;;;126.18;71.47;;;5.90;1.00;;;;;;5029277;28;20049;-80
2023/03/01 09:21:18;;;;;;;114.63;66.20;;;6.00;1.00;;;;;;5029392;28;20103;-78
2023/03/01 09:23:47;;;;;;;118.28;69.30;;;6.10;99.90;;;;;;5028567;28;20560;-76
2023/03/01 09:26:18;;;;;;;125.45;72.85;;;6.00;1.00;;;;;;5027076;28;20167;-76
2023/03/01 09:28:47;;;;;;;122.15;69.22;;;5.90;99.90;;;;;;5032960;28;20176;-78
2023/03/01 09:31:16;;;;;;;125.43;71.28;;;5.80;1.00;;;;;;5034232;28;20517;-79
2023/03/01 09:33:46;;;;;;;116.72;70.60;;;5.90;1.00;;;;;;5036881;28;20046;-78
2023/03/01 09:36:17;;;;;;;114.43;71.65;;;6.10;1.00;;;;;;5036781;28;20117;-77
2023/03/01 09:38:45;;;;;;;118.80;70.60;;;6.30;99.90;;;;;;5034147;28;20084;-78
2023/03/01 09:41:20;;;;;;;110.78;66.93;;;6.40;95.00;;;;;;5036626;28;20049;-77
2023/03/01 09:43:53;;;;;;;121.07;71.00;;;6.50;1.00;;;;;;5030535;28;20045;-79
2023/03/01 09:46:23;;;;;;;117.93;67.50;;;6.70;1.00;;;;;;5034908;28;20582;-78
2023/03/01 09:48:55;;;;;;;111.70;65.95;;;6.50;1.00;;;;;;5029379;28;20073;-78
2023/03/01 09:51:27;;;;;;;112.07;65.72;;;6.40;1.00;;;;;;5029036;28;20456;-78
2023/03/01 09:53:56;;;;;;;118.20;69.10;;;6.40;1.00;;;;;;5029114;28;20378;-76
2023/03/01 09:56:31;;;;;;;124.32;74.60;;;6.10;99.90;;;;;;5027522;28;20045;-78
2023/03/01 09:59:08;;;;;;;128.07;73.28;;;5.90;99.90;;;;;;5044285;28;20080;-78
2023/03/01 10:01:42;;;;;;;99.75;59.15;;;6.00;1.00;;;;;;5027883;28;20049;-77
2023/03/01 10:04:40;;;;;;;118.65;66.38;;;6.10;99.90;;;;;;5027965;28;20042;-78
2023/03/01 10:07:21;;;;;;;138.70;81.25;;;5.90;99.90;;;;;;5029009;28;20131;-76
2023/03/01 10:09:49;;;;;;;162.52;100.55;;;5.40;1.00;;;;;;5031646;28;20049;-78
2023/03/01 10:12:19;;;;;;;173.35;110.68;;;4.90;99.90;;;;;;5033401;28;20545;-76
2023/03/01 10:14:56;;;;;;;153.77;102.68;;;4.70;1.00;;;;;;5034682;28;20124;-77
2023/03/01 10:17:32;;;;;;;164.27;106.63;;;4.80;1.00;;;;;;5030309;28;20045;-81
2023/03/01 10:20:17;;;;;;;138.02;89.88;;;5.00;99.90;;;;;;5027724;28;20042;-78
2023/03/01 10:22:50;;;;;;;120.15;80.93;;;5.20;1.00;;;;;;5028518;28;20057;-79
2023/03/01 10:25:30;;;;;;;123.32;79.53;;;5.40;1.00;;;;;;5028753;28;20050;-78
2023/03/01 10:28:05;;;;;;;112.93;75.25;;;5.60;1.00;;;;;;5028957;28;20076;-77
2023/03/01 10:30:38;;;;;;;110.53;69.85;;;5.90;9.10;;;;;;5027730;28;20038;-79
2023/03/01 10:33:15;;;;;;;89.07;57.75;;;6.00;99.90;;;;;;5043835;28;20057;-76
2023/03/01 10:35:42;;;;;;;88.93;55.95;;;5.90;99.90;;;;;;5027268;28;20077;-78
2023/03/01 10:38:14;;;;;;;100.57;60.38;;;6.00;99.90;;;;;;5029231;28;20053;-78
2023/03/01 10:40:54;;;;;;;92.90;57.45;;;6.10;99.90;;;;;;5028670;28;20076;-77
2023/03/01 10:43:22;;;;;;;81.78;52.17;;;6.10;1.00;;;;;;5028709;28;20043;-78
2023/03/01 10:45:50;;;;;;;91.07;55.95;;;6.10;1.00;;;;;;5026968;28;20069;-78
2023/03/01 10:48:23;;;;;;;87.28;55.42;;;6.20;1.00;;;;;;5027188;28;20141;-77
2023/03/01 10:50:52;;;;;;;89.68;55.45;;;6.20;99.90;;;;;;5028191;28;20482;-79
2023/03/01 10:53:28;;;;;;;86.85;51.90;;;6.20;99.90;;;;;;5027053;28;20076;-77
2023/03/01 10:56:02;;;;;;;79.70;50.38;;;6.20;99.90;;;;;;5027427;28;20049;-76
2023/03/01 10:58:31;;;;;;;78.95;50.30;;;5.90;1.00;;;;;;5027055;28;20119;-78
2023/03/01 11:01:00;;;;;;;77.90;48.88;;;5.80;99.90;;;;;;5028432;28;20041;-78
2023/03/01 11:03:30;;;;;;;100.57;61.08;;;5.70;40.40;;;;;;5027252;28;20149;-77
2023/03/01 11:06:04;;;;;;;104.32;63.20;;;5.50;1.00;;;;;;5027310;28;20052;-78
2023/03/01 11:08:39;;;;;;;97.97;59.92;;;5.30;1.00;;;;;;5026816;28;20068;-77
2023/03/01 11:11:20;;;;;;;87.13;55.73;;;5.10;76.80;;;;;;5027997;28;20175;-76
2023/03/01 11:13:56;;;;;;;73.88;50.53;;;5.10;18.00;;;;;;5029897;28;20318;-77
2023/03/01 11:16:27;;;;;;;72.35;47.15;;;5.20;1.00;;;;;;5031297;28;20038;-76
2023/03/01 11:19:00;;;;;;;71.68;47.80;;;5.20;99.90;;;;;;5030576;28;20045;-77
2023/03/01 11:21:30;;;;;;;78.38;48.40;;;5.40;99.90;;;;;;5030600;28;20089;-76
2023/03/01 11:24:02;;;;;;;70.93;45.90;;;5.70;99.90;;;;;;5031321;28;20127;-78
2023/03/01 11:26:35;;;;;;;56.80;35.78;;;5.90;1.00;;;;;;5031219;28;20041;-76
2023/03/01 11:29:08;;;;;;;65.05;42.67;;;6.10;1.00;;;;;;5031680;28;20136;-79
2023/03/01 11:31:36;;;;;;;62.30;39.53;;;6.20;1.00;;;;;;5030739;28;20270;-76
2023/03/01 11:34:10;;;;;;;58.92;39.60;;;6.20;1.00;;;;;;5032300;28;20033;-77
2023/03/01 11:36:45;;;;;;;64.07;42.58;;;6.20;99.90;;;;;;5030544;28;20094;-76
2023/03/01 11:39:26;;;;;;;77.75;47.92;;;6.40;99.90;;;;;;5031839;28;20059;-75
2023/03/01 11:42:03;;;;;;;109.72;67.95;;;6.60;99.90;;;;;;5046810;28;20049;-76
2023/03/01 11:44:34;;;;;;;141.30;84.07;;;6.70;54.10;;;;;;5031397;28;20049;-77
2023/03/01 11:47:20;;;;;;;157.82;85.93;;;6.80;1.00;;;;;;5029521;28;20509;-78
2023/03/01 11:50:15;;;;;;;155.30;81.43;;;7.00;1.00;;;;;;5032048;28;20037;-77
2023/03/01 11:52:55;;;;;;;143.40;78.78;;;7.10;1.00;;;;;;5043924;28;20465;-77
2023/03/01 11:55:37;;;;;;;148.52;82.07;;;7.10;1.00;;;;;;5031600;28;20246;-77
2023/03/01 11:58:29;;;;;;;148.85;79.90;;;7.20;1.00;;;;;;5031744;28;20092;-77
2023/03/01 12:01:08;;;;;;;145.23;79.75;;;7.30;1.00;;;;;;5023973;28;20060;-76
2023/03/01 12:03:53;;;;;;;144.27;85.28;;;7.50;1.00;;;;;;5031695;28;20080;-75
2023/03/01 12:06:30;;;;;;;141.70;84.18;;;7.30;99.90;;;;;;5030545;28;20065;-75
2023/03/01 12:09:13;;;;;;;152.43;91.32;;;7.30;1.00;;;;;;5032781;28;20084;-77
2023/03/01 12:12:02;;;;;;;152.02;87.75;;;7.30;1.00;;;;;;5037138;28;20105;-76
2023/03/01 12:14:49;;;;;;;152.70;87.35;;;7.40;1.00;;;;;;5049824;28;20581;-77
2023/03/01 12:17:44;;;;;;;145.35;88.65;;;7.50;1.00;;;;;;5030395;28;20068;-74
2023/03/01 12:20:21;;;;;;;147.48;88.88;;;7.60;99.90;;;;;;5045922;28;20045;-78
2023/03/01 12:23:05;;;;;;;153.32;91.72;;;7.80;99.90;;;;;;5031044;28;20482;-80
2023/03/01 12:25:38;;;;;;;143.15;85.68;;;7.80;99.90;;;;;;5031248;28;20474;-74
2023/03/01 12:28:41;;;;;;;138.85;84.15;;;7.80;99.90;;;;;;5030487;28;20128;-78
2023/03/01 12:31:40;;;;;;;128.20;78.10;;;7.90;99.90;;;;;;5027865;28;20056;-75
2023/03/01 12:34:20;;;;;;;127.55;77.10;;;7.90;99.90;;;;;;5028733;28;20076;-78
2023/03/01 12:37:18;;;;;;;123.63;75.72;;;8.00;99.90;;;;;;5030777;28;20603;-77
2023/03/01 12:39:58;;;;;;;129.80;77.20;;;8.00;99.90;;;;;;5047599;28;20060;-79
2023/03/01 12:42:37;;;;;;;126.38;77.05;;;7.80;99.90;;;;;;5031152;28;20124;-75
2023/03/01 12:45:31;;;;;;;127.10;76.82;;;7.70;99.90;;;;;;5029585;28;20067;-75
2023/03/01 12:48:12;;;;;;;86.05;53.88;;;7.70;99.90;;;;;;5029361;28;20397;-76
2023/03/01 12:50:43;;;;;;;65.63;35.92;;;7.80;99.90;;;;;;5030176;28;20045;-75
2023/03/01 12:53:23;;;;;;;57.70;35.45;;;7.60;99.90;;;;;;5030657;28;20129;-76
2023/03/01 12:55:53;;;;;;;37.85;22.77;;;7.30;99.90;;;;;;5030130;28;20140;-78
2023/03/01 12:58:29;;;;;;;30.85;19.95;;;7.20;1.00;;;;;;5031107;28;20037;-77
2023/03/01 13:01:15;;;;;;;31.40;18.55;;;7.30;1.00;;;;;;5029529;28;20049;-79
2023/03/01 13:04:02;;;;;;;24.25;15.73;;;7.20;99.90;;;;;;5030495;28;20037;-79